createdAt,value
2017-05-13T00:00:08.110Z,997.56
2017-05-13T00:01:09.526Z,997.58
2017-05-13T00:02:10.958Z,997.55
2017-05-13T00:03:12.387Z,997.59
2017-05-13T00:04:13.816Z,997.55
2017-05-13T00:05:15.249Z,997.48
2017-05-13T00:06:16.680Z,997.50
2017-05-13T00:07:18.112Z,997.52
2017-05-13T00:08:19.548Z,997.54
2017-05-13T00:09:20.964Z,997.55
2017-05-13T00:10:22.399Z,997.59
2017-05-13T00:11:23.848Z,997.57
2017-05-13T00:12:25.283Z,997.58
2017-05-13T00:13:26.711Z,997.55
2017-05-13T00:14:28.151Z,997.54
2017-05-13T00:15:29.581Z,997.50
2017-05-13T00:16:31.011Z,997.50
2017-05-13T00:17:32.439Z,997.46
2017-05-13T00:18:33.872Z,997.50
2017-05-13T00:19:35.312Z,997.48
2017-05-13T00:20:36.738Z,997.48
2017-05-13T00:21:38.166Z,997.51
2017-05-13T00:22:39.592Z,997.51
2017-05-13T00:23:41.029Z,997.45
2017-05-13T00:24:42.447Z,997.45
2017-05-13T00:25:43.890Z,997.44
2017-05-13T00:26:45.317Z,997.48
2017-05-13T00:27:46.747Z,997.48
2017-05-13T00:28:48.175Z,997.47
2017-05-13T00:29:49.612Z,997.50
2017-05-13T00:30:51.042Z,997.54
2017-05-13T00:31:52.470Z,997.56
2017-05-13T00:32:53.903Z,997.53
2017-05-13T00:33:55.331Z,997.53
2017-05-13T00:34:56.761Z,997.53
2017-05-13T00:35:58.190Z,997.52
2017-05-13T00:36:59.617Z,997.53
2017-05-13T00:38:01.045Z,997.53
2017-05-13T00:39:02.484Z,997.56
2017-05-13T00:40:03.918Z,997.54
2017-05-13T00:41:05.339Z,997.57
2017-05-13T00:42:06.773Z,997.58
2017-05-13T00:43:08.202Z,997.59
2017-05-13T00:44:09.627Z,997.62
2017-05-13T00:45:11.066Z,997.66
2017-05-13T00:46:12.503Z,997.61
2017-05-13T00:47:13.933Z,997.62
2017-05-13T00:48:15.364Z,997.60
2017-05-13T00:49:16.789Z,997.59
2017-05-13T00:50:18.219Z,997.53
2017-05-13T00:51:19.643Z,997.56
2017-05-13T00:52:21.075Z,997.52
2017-05-13T00:53:22.498Z,997.54
2017-05-13T00:54:23.931Z,997.54
2017-05-13T00:55:25.362Z,997.47
2017-05-13T00:56:26.788Z,997.46
2017-05-13T00:57:28.221Z,997.42
2017-05-13T00:58:29.648Z,997.43
2017-05-13T00:59:31.073Z,997.45
2017-05-13T01:00:32.510Z,997.46
2017-05-13T01:01:33.933Z,997.43
2017-05-13T01:02:35.359Z,997.43
2017-05-13T01:03:36.816Z,997.38
2017-05-13T01:04:38.241Z,997.40
2017-05-13T01:05:39.673Z,997.42
2017-05-13T01:06:41.106Z,997.39
2017-05-13T01:07:42.526Z,997.41
2017-05-13T01:08:43.954Z,997.40
2017-05-13T01:09:45.397Z,997.43
2017-05-13T01:10:46.828Z,997.40
2017-05-13T01:11:48.256Z,997.44
2017-05-13T01:12:49.690Z,997.43
2017-05-13T01:13:51.120Z,997.44
2017-05-13T01:14:53.444Z,997.45
2017-05-13T01:15:54.875Z,997.41
2017-05-13T01:16:56.312Z,997.38
2017-05-13T01:17:57.743Z,997.39
2017-05-13T01:18:59.167Z,997.45
2017-05-13T01:20:00.594Z,997.45
2017-05-13T01:21:02.025Z,997.42
2017-05-13T01:22:03.452Z,997.43
2017-05-13T01:23:04.879Z,997.40
2017-05-13T01:24:06.304Z,997.45
2017-05-13T01:25:07.731Z,997.36
2017-05-13T01:26:09.163Z,997.36
2017-05-13T01:27:11.507Z,997.41
2017-05-13T01:28:12.933Z,997.38
2017-05-13T01:29:14.356Z,997.34
2017-05-13T01:30:15.788Z,997.38
2017-05-13T01:31:17.221Z,997.41
2017-05-13T01:32:18.663Z,997.44
2017-05-13T01:33:20.086Z,997.41
2017-05-13T01:34:22.226Z,997.44
2017-05-13T01:35:23.651Z,997.47
2017-05-13T01:36:26.024Z,997.49
2017-05-13T01:37:27.449Z,997.45
2017-05-13T01:38:28.873Z,997.42
2017-05-13T01:39:30.301Z,997.38
2017-05-13T01:40:31.730Z,997.41
2017-05-13T01:41:33.168Z,997.40
2017-05-13T01:42:34.599Z,997.44
2017-05-13T01:43:36.025Z,997.41
2017-05-13T01:44:37.452Z,997.42
2017-05-13T01:45:39.603Z,997.44
2017-05-13T01:46:41.031Z,997.43
2017-05-13T01:47:42.453Z,997.46
2017-05-13T01:48:43.880Z,997.47
2017-05-13T01:49:45.309Z,997.45
2017-05-13T01:50:46.742Z,997.38
2017-05-13T01:51:48.166Z,997.40
2017-05-13T01:52:49.588Z,997.38
2017-05-13T01:53:51.023Z,997.37
2017-05-13T01:54:52.445Z,997.37
2017-05-13T01:55:53.872Z,997.38
2017-05-13T01:56:55.293Z,997.40
2017-05-13T01:57:56.721Z,997.39
2017-05-13T01:58:58.147Z,997.43
2017-05-13T01:59:59.577Z,997.45
2017-05-13T02:01:01.009Z,997.52
2017-05-13T02:02:02.436Z,997.54
2017-05-13T02:03:03.858Z,997.55
2017-05-13T02:04:05.288Z,997.50
2017-05-13T02:05:06.713Z,997.52
2017-05-13T02:06:08.153Z,997.50
2017-05-13T02:07:09.581Z,997.51
2017-05-13T02:08:11.009Z,997.51
2017-05-13T02:09:12.432Z,997.55
2017-05-13T02:10:13.863Z,997.56
2017-05-13T02:11:15.288Z,997.59
2017-05-13T02:12:16.721Z,997.56
2017-05-13T02:13:18.152Z,997.59
2017-05-13T02:14:19.578Z,997.58
2017-05-13T02:15:20.996Z,997.67
2017-05-13T02:16:22.432Z,997.64
2017-05-13T02:17:23.863Z,997.67
2017-05-13T02:18:25.285Z,997.64
2017-05-13T02:19:26.708Z,997.64
2017-05-13T02:20:28.139Z,997.67
2017-05-13T02:21:29.569Z,997.65
2017-05-13T02:22:30.995Z,997.67
2017-05-13T02:23:32.422Z,997.66
2017-05-13T02:24:33.848Z,997.66
2017-05-13T02:25:35.276Z,997.67
2017-05-13T02:26:36.721Z,997.65
2017-05-13T02:27:38.158Z,997.67
2017-05-13T02:28:39.580Z,997.66
2017-05-13T02:29:41.009Z,997.65
2017-05-13T02:30:42.450Z,997.68
2017-05-13T02:31:43.874Z,997.71
2017-05-13T02:32:45.339Z,997.73
2017-05-13T02:33:46.739Z,997.74
2017-05-13T02:34:48.185Z,997.72
2017-05-13T02:35:49.610Z,997.72
2017-05-13T02:36:51.054Z,997.75
2017-05-13T02:37:52.485Z,997.73
2017-05-13T02:38:53.907Z,997.73
2017-05-13T02:39:55.332Z,997.72
2017-05-13T02:40:56.761Z,997.73
2017-05-13T02:41:58.189Z,997.74
2017-05-13T02:42:59.618Z,997.77
2017-05-13T02:44:01.046Z,997.72
2017-05-13T02:45:02.475Z,997.71
2017-05-13T02:46:03.900Z,997.75
2017-05-13T02:47:05.326Z,997.76
2017-05-13T02:48:06.766Z,997.75
2017-05-13T02:49:08.189Z,997.77
2017-05-13T02:50:09.607Z,997.84
2017-05-13T02:51:11.033Z,997.82
2017-05-13T02:52:12.463Z,997.84
2017-05-13T02:53:13.884Z,997.88
2017-05-13T02:54:15.314Z,997.85
2017-05-13T02:55:16.736Z,997.86
2017-05-13T02:56:18.165Z,997.90
2017-05-13T02:57:19.590Z,997.93
2017-05-13T02:58:21.024Z,997.94
2017-05-13T02:59:22.448Z,997.93
2017-05-13T03:00:23.872Z,997.96
2017-05-13T03:01:25.302Z,997.95
2017-05-13T03:02:26.728Z,997.93
2017-05-13T03:03:28.145Z,997.94
2017-05-13T03:04:29.571Z,997.95
2017-05-13T03:05:30.999Z,997.94
2017-05-13T03:06:32.421Z,997.97
2017-05-13T03:07:33.849Z,997.96
2017-05-13T03:08:35.278Z,997.98
2017-05-13T03:09:36.700Z,998.02
2017-05-13T03:10:38.129Z,998.00
2017-05-13T03:11:39.546Z,998.07
2017-05-13T03:12:40.969Z,998.03
2017-05-13T03:13:42.399Z,998.03
2017-05-13T03:14:43.831Z,998.05
2017-05-13T03:15:45.259Z,998.06
2017-05-13T03:16:46.695Z,998.04
2017-05-13T03:17:48.116Z,998.05
2017-05-13T03:18:49.543Z,998.05
2017-05-13T03:19:50.960Z,998.07
2017-05-13T03:20:52.409Z,998.09
2017-05-13T03:21:53.840Z,998.07
2017-05-13T03:22:55.267Z,998.07
2017-05-13T03:23:56.691Z,998.05
2017-05-13T03:24:58.122Z,998.08
2017-05-13T03:25:59.544Z,998.12
2017-05-13T03:27:00.957Z,998.08
2017-05-13T03:28:02.389Z,998.14
2017-05-13T03:29:03.824Z,998.09
2017-05-13T03:30:05.251Z,998.11
2017-05-13T03:31:06.680Z,998.10
2017-05-13T03:32:08.111Z,998.14
2017-05-13T03:33:09.539Z,998.09
2017-05-13T03:34:11.074Z,998.10
2017-05-13T03:35:12.496Z,998.11
2017-05-13T03:36:13.927Z,998.09
2017-05-13T03:37:15.364Z,998.08
2017-05-13T03:38:16.791Z,998.05
2017-05-13T03:39:18.243Z,998.08
2017-05-13T03:40:19.669Z,998.06
2017-05-13T03:41:21.099Z,998.06
2017-05-13T03:42:22.529Z,998.04
2017-05-13T03:43:23.959Z,998.10
2017-05-13T03:44:25.390Z,998.06
2017-05-13T03:45:26.939Z,998.09
2017-05-13T03:46:28.373Z,998.09
2017-05-13T03:47:29.796Z,998.06
2017-05-13T03:48:31.228Z,998.11
2017-05-13T03:49:32.664Z,998.11
2017-05-13T03:50:34.094Z,998.11
2017-05-13T03:51:35.522Z,998.10
2017-05-13T03:52:36.950Z,998.10
2017-05-13T03:53:38.450Z,998.08
2017-05-13T03:54:39.880Z,998.08
2017-05-13T03:55:41.321Z,998.05
2017-05-13T03:56:42.754Z,998.05
2017-05-13T03:57:44.178Z,998.07
2017-05-13T03:58:45.604Z,998.07
2017-05-13T03:59:47.068Z,998.08
2017-05-13T04:00:48.500Z,998.08
2017-05-13T04:01:49.929Z,998.07
2017-05-13T04:02:51.356Z,998.15
2017-05-13T04:03:52.782Z,998.10
2017-05-13T04:04:54.210Z,998.12
2017-05-13T04:05:55.634Z,998.15
2017-05-13T04:06:57.062Z,998.16
2017-05-13T04:07:58.493Z,998.20
2017-05-13T04:08:59.922Z,998.19
2017-05-13T04:10:01.354Z,998.23
2017-05-13T04:11:02.783Z,998.21
2017-05-13T04:12:04.212Z,998.24
2017-05-13T04:13:05.649Z,998.25
2017-05-13T04:14:07.081Z,998.29
2017-05-13T04:15:08.517Z,998.29
2017-05-13T04:16:09.953Z,998.29
2017-05-13T04:17:11.378Z,998.29
2017-05-13T04:18:12.804Z,998.25
2017-05-13T04:19:14.239Z,998.28
2017-05-13T04:20:15.670Z,998.33
2017-05-13T04:21:17.102Z,998.34
2017-05-13T04:22:18.539Z,998.32
2017-05-13T04:23:19.967Z,998.30
2017-05-13T04:24:21.400Z,998.32
2017-05-13T04:25:22.833Z,998.34
2017-05-13T04:26:24.266Z,998.33
2017-05-13T04:27:25.689Z,998.34
2017-05-13T04:28:27.119Z,998.39
2017-05-13T04:29:28.543Z,998.38
2017-05-13T04:30:29.975Z,998.36
2017-05-13T04:31:31.407Z,998.42
2017-05-13T04:32:32.838Z,998.41
2017-05-13T04:33:34.265Z,998.41
2017-05-13T04:34:35.701Z,998.45
2017-05-13T04:35:37.136Z,998.47
2017-05-13T04:36:38.561Z,998.50
2017-05-13T04:37:39.994Z,998.57
2017-05-13T04:38:41.425Z,998.55
2017-05-13T04:39:42.863Z,998.58
2017-05-13T04:40:44.293Z,998.61
2017-05-13T04:41:45.721Z,998.61
2017-05-13T04:42:48.952Z,998.62
2017-05-13T04:43:51.965Z,998.64
2017-05-13T04:44:53.396Z,998.67
2017-05-13T04:45:54.825Z,998.68
2017-05-13T04:46:56.257Z,998.73
2017-05-13T04:47:59.314Z,998.74
2017-05-13T04:48:59.895Z,998.75
2017-05-13T04:50:01.337Z,998.77
2017-05-13T04:51:02.764Z,998.76
2017-05-13T04:52:04.195Z,998.78
2017-05-13T04:53:05.620Z,998.80
2017-05-13T04:54:07.048Z,998.79
2017-05-13T04:55:08.474Z,998.79
2017-05-13T04:56:09.906Z,998.80
2017-05-13T04:57:11.338Z,998.79
2017-05-13T04:58:12.771Z,998.79
2017-05-13T04:59:14.205Z,998.84
2017-05-13T05:00:15.630Z,998.84
2017-05-13T05:01:17.066Z,998.83
2017-05-13T05:02:18.510Z,998.84
2017-05-13T05:03:19.932Z,998.87
2017-05-13T05:04:22.154Z,998.82
2017-05-13T05:05:23.587Z,998.83
2017-05-13T05:06:25.017Z,998.89
2017-05-13T05:07:26.444Z,998.92
2017-05-13T05:08:27.869Z,998.92
2017-05-13T05:09:29.302Z,998.91
2017-05-13T05:10:30.738Z,998.95
2017-05-13T05:11:32.167Z,998.94
2017-05-13T05:12:33.596Z,998.95
2017-05-13T05:13:35.029Z,998.98
2017-05-13T05:14:36.462Z,998.99
2017-05-13T05:15:37.891Z,998.97
2017-05-13T05:16:39.321Z,998.97
2017-05-13T05:17:40.757Z,998.95
2017-05-13T05:18:42.184Z,999.02
2017-05-13T05:19:43.614Z,999.04
2017-05-13T05:20:45.052Z,999.08
2017-05-13T05:21:46.492Z,999.11
2017-05-13T05:22:47.924Z,999.10
2017-05-13T05:23:49.356Z,999.13
2017-05-13T05:24:50.789Z,999.13
2017-05-13T05:25:52.226Z,999.19
2017-05-13T05:26:53.662Z,999.17
2017-05-13T05:27:55.082Z,999.15
2017-05-13T05:28:56.513Z,999.16
2017-05-13T05:29:57.946Z,999.18
2017-05-13T05:30:59.376Z,999.18
2017-05-13T05:32:00.810Z,999.22
2017-05-13T05:33:02.253Z,999.23
2017-05-13T05:34:03.685Z,999.25
2017-05-13T05:35:05.115Z,999.24
2017-05-13T05:36:06.548Z,999.25
2017-05-13T05:37:07.978Z,999.25
2017-05-13T05:38:09.402Z,999.31
2017-05-13T05:39:10.836Z,999.29
2017-05-13T05:40:12.267Z,999.31
2017-05-13T05:41:13.696Z,999.32
2017-05-13T05:42:15.123Z,999.34
2017-05-13T05:43:16.558Z,999.36
2017-05-13T05:44:17.994Z,999.41
2017-05-13T05:45:19.421Z,999.36
2017-05-13T05:46:20.851Z,999.38
2017-05-13T05:47:22.286Z,999.42
2017-05-13T05:48:23.717Z,999.44
2017-05-13T05:49:25.154Z,999.42
2017-05-13T05:50:26.588Z,999.45
2017-05-13T05:51:28.022Z,999.49
2017-05-13T05:52:29.459Z,999.49
2017-05-13T05:53:30.885Z,999.49
2017-05-13T05:54:32.318Z,999.50
2017-05-13T05:55:33.745Z,999.51
2017-05-13T05:56:35.174Z,999.54
2017-05-13T05:57:36.613Z,999.56
2017-05-13T05:58:38.042Z,999.61
2017-05-13T05:59:39.472Z,999.64
2017-05-13T06:00:40.911Z,999.61
2017-05-13T06:01:42.355Z,999.62
2017-05-13T06:02:43.776Z,999.65
2017-05-13T06:03:45.217Z,999.66
2017-05-13T06:04:46.648Z,999.68
2017-05-13T06:05:48.090Z,999.65
2017-05-13T06:06:49.519Z,999.70
2017-05-13T06:07:50.953Z,999.72
2017-05-13T06:08:52.389Z,999.75
2017-05-13T06:09:53.821Z,999.71
2017-05-13T06:10:55.257Z,999.70
2017-05-13T06:11:56.702Z,999.74
2017-05-13T06:12:58.141Z,999.80
2017-05-13T06:13:59.580Z,999.84
2017-05-13T06:15:01.009Z,999.80
2017-05-13T06:16:02.452Z,999.82
2017-05-13T06:17:03.885Z,999.85
2017-05-13T06:18:05.312Z,999.90
2017-05-13T06:19:06.745Z,999.92
2017-05-13T06:20:08.187Z,999.93
2017-05-13T06:21:09.622Z,999.95
2017-05-13T06:22:11.050Z,1000.00
2017-05-13T06:23:12.481Z,1000.01
2017-05-13T06:24:13.912Z,1000.00
2017-05-13T06:25:15.357Z,1000.03
2017-05-13T06:26:16.793Z,1000.07
2017-05-13T06:27:18.227Z,1000.00
2017-05-13T06:28:19.663Z,999.99
2017-05-13T06:29:21.089Z,999.94
2017-05-13T06:30:22.533Z,999.97
2017-05-13T06:31:23.967Z,999.94
2017-05-13T06:32:25.404Z,999.94
2017-05-13T06:33:26.832Z,999.92
2017-05-13T06:34:28.271Z,999.92
2017-05-13T06:35:29.710Z,999.89
2017-05-13T06:36:31.140Z,999.93
2017-05-13T06:37:32.573Z,999.90
2017-05-13T06:38:34.003Z,999.91
2017-05-13T06:39:35.435Z,999.95
2017-05-13T06:40:36.872Z,999.96
2017-05-13T06:41:38.307Z,1000.00
2017-05-13T06:42:39.748Z,1000.00
2017-05-13T06:43:41.178Z,1000.00
2017-05-13T06:44:42.614Z,1000.05
2017-05-13T06:45:44.051Z,1000.05
2017-05-13T06:46:45.493Z,1000.04
2017-05-13T06:47:46.928Z,1000.05
2017-05-13T06:48:49.323Z,1000.07
2017-05-13T06:49:49.752Z,1000.05
2017-05-13T06:50:51.185Z,1000.05
2017-05-13T06:51:52.619Z,1000.08
2017-05-13T06:52:54.056Z,1000.08
2017-05-13T06:53:55.490Z,1000.11
2017-05-13T06:54:56.929Z,1000.20
2017-05-13T06:55:58.370Z,1000.19
2017-05-13T06:56:59.806Z,1000.25
2017-05-13T06:58:01.236Z,1000.24
2017-05-13T06:59:02.665Z,1000.23
2017-05-13T07:00:04.100Z,1000.33
2017-05-13T07:01:05.533Z,1000.33
2017-05-13T07:02:06.968Z,1000.29
2017-05-13T07:03:08.407Z,1000.34
2017-05-13T07:04:09.830Z,1000.35
2017-05-13T07:05:11.269Z,1000.31
2017-05-13T07:06:12.700Z,1000.35
2017-05-13T07:07:14.136Z,1000.40
2017-05-13T07:08:15.565Z,1000.31
2017-05-13T07:09:17.000Z,1000.33
2017-05-13T07:10:18.428Z,1000.36
2017-05-13T07:11:19.864Z,1000.38
2017-05-13T07:12:21.292Z,1000.37
2017-05-13T07:13:22.732Z,1000.40
2017-05-13T07:14:24.169Z,1000.37
2017-05-13T07:15:25.598Z,1000.37
2017-05-13T07:16:27.036Z,1000.40
2017-05-13T07:17:28.469Z,1000.39
2017-05-13T07:18:29.910Z,1000.37
2017-05-13T07:19:31.350Z,1000.38
2017-05-13T07:20:32.782Z,1000.36
2017-05-13T07:21:34.234Z,1000.36
2017-05-13T07:22:35.670Z,1000.37
2017-05-13T07:23:37.105Z,1000.38
2017-05-13T07:24:38.541Z,1000.42
2017-05-13T07:25:39.974Z,1000.42
2017-05-13T07:26:41.398Z,1000.43
2017-05-13T07:27:42.835Z,1000.48
2017-05-13T07:28:44.278Z,1000.40
2017-05-13T07:29:45.709Z,1000.46
2017-05-13T07:30:47.144Z,1000.47
2017-05-13T07:31:48.584Z,1000.53
2017-05-13T07:32:50.025Z,1000.52
2017-05-13T07:33:51.457Z,1000.53
2017-05-13T07:34:52.893Z,1000.50
2017-05-13T07:35:54.325Z,1000.51
2017-05-13T07:36:55.762Z,1000.58
2017-05-13T07:37:57.201Z,1000.60
2017-05-13T07:38:58.631Z,1000.60
2017-05-13T07:40:00.061Z,1000.64
2017-05-13T07:41:01.498Z,1000.62
2017-05-13T07:42:02.949Z,1000.62
2017-05-13T07:43:04.424Z,1000.66
2017-05-13T07:44:05.834Z,1000.66
2017-05-13T07:45:07.261Z,1000.61
2017-05-13T07:46:08.699Z,1000.63
2017-05-13T07:47:10.132Z,1000.70
2017-05-13T07:48:11.574Z,1000.69
2017-05-13T07:49:13.008Z,1000.73
2017-05-13T07:50:14.446Z,1000.65
2017-05-13T07:51:15.875Z,1000.72
2017-05-13T07:52:17.313Z,1000.75
2017-05-13T07:53:18.744Z,1000.77
2017-05-13T07:54:20.184Z,1000.72
2017-05-13T07:55:21.623Z,1000.77
2017-05-13T07:56:23.071Z,1000.72
2017-05-13T07:57:24.503Z,1000.71
2017-05-13T07:58:25.935Z,1000.77
2017-05-13T07:59:27.371Z,1000.75
2017-05-13T08:00:28.809Z,1000.80
2017-05-13T08:01:30.252Z,1000.82
2017-05-13T08:02:31.689Z,1000.81
2017-05-13T08:03:33.121Z,1000.87
2017-05-13T08:04:34.555Z,1000.82
2017-05-13T08:05:35.983Z,1000.87
2017-05-13T08:06:37.428Z,1000.85
2017-05-13T08:07:38.843Z,1000.84
2017-05-13T08:08:40.281Z,1000.86
2017-05-13T08:09:41.707Z,1000.85
2017-05-13T08:10:43.149Z,1000.86
2017-05-13T08:11:44.584Z,1000.89
2017-05-13T08:12:46.021Z,1000.86
2017-05-13T08:13:47.454Z,1000.89
2017-05-13T08:14:48.887Z,1000.93
2017-05-13T08:15:50.334Z,1000.87
2017-05-13T08:16:51.770Z,1000.90
2017-05-13T08:17:53.207Z,1000.95
2017-05-13T08:18:54.651Z,1000.96
2017-05-13T08:19:56.083Z,1000.96
2017-05-13T08:20:57.525Z,1000.96
2017-05-13T08:21:58.959Z,1000.98
2017-05-13T08:23:00.396Z,1001.01
2017-05-13T08:24:01.842Z,1001.01
2017-05-13T08:25:03.276Z,1001.06
2017-05-13T08:26:04.722Z,1001.07
2017-05-13T08:27:06.153Z,1001.07
2017-05-13T08:28:07.589Z,1001.11
2017-05-13T08:29:09.027Z,1001.06
2017-05-13T08:30:10.468Z,1001.08
2017-05-13T08:31:11.896Z,1001.09
2017-05-13T08:32:13.336Z,1001.08
2017-05-13T08:33:14.777Z,1001.06
2017-05-13T08:34:16.208Z,1001.13
2017-05-13T08:35:17.643Z,1001.18
2017-05-13T08:36:19.081Z,1001.10
2017-05-13T08:37:20.511Z,1001.16
2017-05-13T08:38:21.954Z,1001.13
2017-05-13T08:39:23.386Z,1001.16
2017-05-13T08:40:24.838Z,1001.17
2017-05-13T08:41:26.273Z,1001.20
2017-05-13T08:42:27.709Z,1001.16
2017-05-13T08:43:29.145Z,1001.16
2017-05-13T08:44:30.583Z,1001.19
2017-05-13T08:45:32.017Z,1001.23
2017-05-13T08:46:33.462Z,1001.24
2017-05-13T08:47:34.897Z,1001.24
2017-05-13T08:48:36.332Z,1001.19
2017-05-13T08:49:37.768Z,1001.24
2017-05-13T08:50:39.211Z,1001.26
2017-05-13T08:51:40.659Z,1001.26
2017-05-13T08:52:42.697Z,1001.23
2017-05-13T08:53:44.135Z,1001.25
2017-05-13T08:54:45.582Z,1001.30
2017-05-13T08:55:47.020Z,1001.32
2017-05-13T08:56:48.455Z,1001.32
2017-05-13T08:57:49.895Z,1001.34
2017-05-13T08:58:51.333Z,1001.35
2017-05-13T08:59:52.771Z,1001.31
2017-05-13T09:00:54.210Z,1001.30
2017-05-13T09:01:55.655Z,1001.28
2017-05-13T09:02:57.097Z,1001.33
2017-05-13T09:03:58.541Z,1001.33
2017-05-13T09:04:59.976Z,1001.35
2017-05-13T09:06:01.406Z,1001.36
2017-05-13T09:07:02.843Z,1001.32
2017-05-13T09:08:04.277Z,1001.32
2017-05-13T09:09:05.713Z,1001.40
2017-05-13T09:10:07.148Z,1001.39
2017-05-13T09:11:08.588Z,1001.45
2017-05-13T09:12:10.025Z,1001.41
2017-05-13T09:13:11.460Z,1001.41
2017-05-13T09:14:12.893Z,1001.47
2017-05-13T09:15:14.332Z,1001.47
2017-05-13T09:16:15.772Z,1001.54
2017-05-13T09:17:17.211Z,1001.50
2017-05-13T09:18:19.500Z,1001.51
2017-05-13T09:19:20.940Z,1001.54
2017-05-13T09:20:22.384Z,1001.54
2017-05-13T09:21:23.828Z,1001.60
2017-05-13T09:22:25.266Z,1001.64
2017-05-13T09:23:26.701Z,1001.62
2017-05-13T09:24:28.141Z,1001.66
2017-05-13T09:25:29.574Z,1001.65
2017-05-13T09:26:31.015Z,1001.71
2017-05-13T09:27:32.456Z,1001.66
2017-05-13T09:28:33.892Z,1001.69
2017-05-13T09:29:35.334Z,1001.66
2017-05-13T09:30:37.746Z,1001.73
2017-05-13T09:31:39.180Z,1001.71
2017-05-13T09:32:40.623Z,1001.76
2017-05-13T09:33:42.069Z,1001.74
2017-05-13T09:34:43.504Z,1001.76
2017-05-13T09:35:44.939Z,1001.76
2017-05-13T09:36:46.375Z,1001.75
2017-05-13T09:37:47.817Z,1001.74
2017-05-13T09:38:49.253Z,1001.77
2017-05-13T09:39:50.690Z,1001.71
2017-05-13T09:40:52.139Z,1001.72
2017-05-13T09:41:53.577Z,1001.76
2017-05-13T09:42:55.015Z,1001.73
2017-05-13T09:43:56.450Z,1001.76
2017-05-13T09:44:57.882Z,1001.84
2017-05-13T09:45:59.325Z,1001.86
2017-05-13T09:47:00.768Z,1001.85
2017-05-13T09:48:02.204Z,1001.79
2017-05-13T09:49:03.693Z,1001.82
2017-05-13T09:50:05.076Z,1001.77
2017-05-13T09:51:06.516Z,1001.79
2017-05-13T09:52:07.961Z,1001.80
2017-05-13T09:53:09.406Z,1001.81
2017-05-13T09:54:10.840Z,1001.85
2017-05-13T09:55:12.280Z,1001.80
2017-05-13T09:56:13.718Z,1001.84
2017-05-13T09:57:15.158Z,1001.85
2017-05-13T09:58:16.607Z,1001.87
2017-05-13T09:59:18.046Z,1001.92
2017-05-13T10:00:19.478Z,1001.93
2017-05-13T10:01:20.924Z,1001.96
2017-05-13T10:02:22.366Z,1001.92
2017-05-13T10:03:23.819Z,1001.91
2017-05-13T10:04:25.253Z,1001.87
2017-05-13T10:05:26.709Z,1001.91
2017-05-13T10:06:28.157Z,1001.93
2017-05-13T10:07:29.595Z,1001.95
2017-05-13T10:08:31.034Z,1001.92
2017-05-13T10:09:32.475Z,1001.92
2017-05-13T10:10:33.912Z,1001.90
2017-05-13T10:11:35.359Z,1001.89
2017-05-13T10:12:36.798Z,1001.93
2017-05-13T10:13:38.256Z,1001.93
2017-05-13T10:14:39.680Z,1001.91
2017-05-13T10:15:41.125Z,1001.99
2017-05-13T10:16:42.566Z,1001.98
2017-05-13T10:17:44.011Z,1001.98
2017-05-13T10:18:45.460Z,1001.93
2017-05-13T10:19:46.894Z,1001.95
2017-05-13T10:20:48.331Z,1001.93
2017-05-13T10:21:49.769Z,1001.91
2017-05-13T10:22:51.208Z,1001.98
2017-05-13T10:23:52.653Z,1001.97
2017-05-13T10:24:54.087Z,1001.87
2017-05-13T10:25:55.531Z,1001.90
2017-05-13T10:26:56.984Z,1001.96
2017-05-13T10:27:58.428Z,1001.96
2017-05-13T10:28:59.866Z,1001.93
2017-05-13T10:30:01.299Z,1001.88
2017-05-13T10:31:02.776Z,1001.97
2017-05-13T10:32:04.219Z,1001.97
2017-05-13T10:33:05.652Z,1001.99
2017-05-13T10:34:07.107Z,1001.98
2017-05-13T10:35:08.547Z,1001.94
2017-05-13T10:36:09.989Z,1001.92
2017-05-13T10:37:11.430Z,1001.90
2017-05-13T10:38:12.871Z,1001.88
2017-05-13T10:39:14.330Z,1001.92
2017-05-13T10:40:15.751Z,1001.92
2017-05-13T10:41:17.197Z,1001.89
2017-05-13T10:42:18.634Z,1001.88
2017-05-13T10:43:20.073Z,1001.92
2017-05-13T10:44:21.521Z,1001.93
2017-05-13T10:45:22.955Z,1001.98
2017-05-13T10:46:24.390Z,1001.96
2017-05-13T10:47:25.840Z,1001.93
2017-05-13T10:48:27.283Z,1001.97
2017-05-13T10:49:28.717Z,1001.96
2017-05-13T10:50:30.175Z,1001.98
2017-05-13T10:51:31.616Z,1001.93
2017-05-13T10:52:33.053Z,1001.86
2017-05-13T10:53:34.498Z,1001.90
2017-05-13T10:54:35.935Z,1001.91
2017-05-13T10:55:37.377Z,1001.92
2017-05-13T10:56:38.820Z,1001.89
2017-05-13T10:57:40.256Z,1001.90
2017-05-13T10:58:41.696Z,1001.88
2017-05-13T10:59:43.204Z,1001.91
2017-05-13T11:00:44.638Z,1001.84
2017-05-13T11:01:47.661Z,1001.82
2017-05-13T11:02:49.111Z,1001.78
2017-05-13T11:03:50.546Z,1001.86
2017-05-13T11:04:51.986Z,1001.84
2017-05-13T11:05:53.424Z,1001.82
2017-05-13T11:06:54.855Z,1001.82
2017-05-13T11:07:56.298Z,1001.81
2017-05-13T11:08:57.723Z,1001.78
2017-05-13T11:09:59.201Z,1001.87
2017-05-13T11:11:00.637Z,1001.86
2017-05-13T11:12:02.076Z,1001.79
2017-05-13T11:13:03.520Z,1001.84
2017-05-13T11:14:04.962Z,1001.87
2017-05-13T11:15:06.416Z,1001.81
2017-05-13T11:16:07.861Z,1001.90
2017-05-13T11:17:09.298Z,1001.81
2017-05-13T11:18:10.742Z,1001.78
2017-05-13T11:19:13.146Z,1001.74
2017-05-13T11:20:14.585Z,1001.80
2017-05-13T11:21:16.030Z,1001.78
2017-05-13T11:22:17.464Z,1001.78
2017-05-13T11:23:18.903Z,1001.75
2017-05-13T11:24:20.355Z,1001.75
2017-05-13T11:25:21.793Z,1001.83
2017-05-13T11:26:23.231Z,1001.77
2017-05-13T11:27:24.667Z,1001.74
2017-05-13T11:28:26.105Z,1001.68
2017-05-13T11:29:27.534Z,1001.82
2017-05-13T11:30:28.972Z,1001.78
2017-05-13T11:31:30.444Z,1001.72
2017-05-13T11:32:31.839Z,1001.76
2017-05-13T11:33:34.048Z,1001.72
2017-05-13T11:34:34.650Z,1001.74
2017-05-13T11:35:36.086Z,1001.75
2017-05-13T11:36:37.524Z,1001.79
2017-05-13T11:37:38.958Z,1001.81
2017-05-13T11:38:40.397Z,1001.82
2017-05-13T11:39:41.831Z,1001.80
2017-05-13T11:40:43.274Z,1001.80
2017-05-13T11:41:44.708Z,1001.74
2017-05-13T11:42:46.156Z,1001.80
2017-05-13T11:43:47.589Z,1001.90
2017-05-13T11:44:49.044Z,1001.89
2017-05-13T11:45:50.483Z,1001.88
2017-05-13T11:46:51.919Z,1001.81
2017-05-13T11:47:53.370Z,1001.82
2017-05-13T11:48:54.806Z,1001.80
2017-05-13T11:49:56.255Z,1001.89
2017-05-13T11:50:57.698Z,1001.92
2017-05-13T11:51:59.139Z,1001.86
2017-05-13T11:53:00.578Z,1001.93
2017-05-13T11:54:02.017Z,1001.91
2017-05-13T11:55:03.453Z,1001.94
2017-05-13T11:56:04.884Z,1001.94
2017-05-13T11:57:06.328Z,1001.91
2017-05-13T11:58:07.763Z,1001.88
2017-05-13T11:59:09.209Z,1001.86
2017-05-13T12:00:10.660Z,1001.89
2017-05-13T12:01:12.095Z,1001.91
2017-05-13T12:02:13.541Z,1001.94
2017-05-13T12:03:14.997Z,1001.97
2017-05-13T12:04:16.435Z,1001.94
2017-05-13T12:05:17.881Z,1001.97
2017-05-13T12:06:19.316Z,1001.96
2017-05-13T12:07:20.751Z,1002.00
2017-05-13T12:08:22.200Z,1001.93
2017-05-13T12:09:23.643Z,1001.93
2017-05-13T12:10:25.089Z,1001.90
2017-05-13T12:11:26.530Z,1001.87
2017-05-13T12:12:27.963Z,1001.85
2017-05-13T12:13:29.402Z,1001.80
2017-05-13T12:14:30.846Z,1001.85
2017-05-13T12:15:32.284Z,1001.83
2017-05-13T12:16:33.729Z,1001.75
2017-05-13T12:17:35.162Z,1001.81
2017-05-13T12:18:36.602Z,1001.79
2017-05-13T12:19:38.064Z,1001.84
2017-05-13T12:20:39.492Z,1001.79
2017-05-13T12:21:40.930Z,1001.82
2017-05-13T12:22:42.369Z,1001.82
2017-05-13T12:23:43.810Z,1001.87
2017-05-13T12:24:45.248Z,1001.89
2017-05-13T12:25:46.696Z,1001.91
2017-05-13T12:26:48.131Z,1001.88
2017-05-13T12:27:49.569Z,1001.84
2017-05-13T12:28:51.014Z,1001.85
2017-05-13T12:29:52.448Z,1001.87
2017-05-13T12:30:53.892Z,1001.88
2017-05-13T12:31:55.329Z,1001.88
2017-05-13T12:32:56.765Z,1001.88
2017-05-13T12:33:58.210Z,1001.87
2017-05-13T12:34:59.654Z,1001.88